Weather at Lanet Prairies Airport

Public forecast

Using degrees Celsius for public forecast. Weather courtesy of forecast.io.

Closest aviation weather report (METAR) to Lanet Prairies Airport

Closest report is Nakuru Airport, 0.9 nm (1.6 km) SE.

2024/06/21 17:00 (retrieved 1 hour ago)

HKNK 211700Z 00000KT 9999 FEW019 17/10

Closest aviation forecast (TAF) to Lanet Prairies Airport

Closest forecast is Eldoret International Airport, 68.7 nm (127.2 km) NW.

2024/06/21 18:54 (retrieved 0 seconds ago)

TAF TAF HKEL 211700Z 2118/2224 16005KT 9999 SCT018 BKN080 BECMG 2208/2211 30010KT FEW025CB SCT026 TEMPO 2213/2217 -TSRA FEW019CB SCT020 BKN080 BECMG 2221/2223 16005KT SCT018 BKN080